sensor_id;sensor_type;location;lat;lon;timestamp;temperature;humidity
4487;DHT22;2256;48.740;9.106;2024-02-21T00:00:13;6.00;99.90
4487;DHT22;2256;48.740;9.106;2024-02-21T00:02:39;6.00;99.90
4487;DHT22;2256;48.740;9.106;2024-02-21T00:05:07;6.00;99.90
4487;DHT22;2256;48.740;9.106;2024-02-21T00:07:35;6.00;99.90
4487;DHT22;2256;48.740;9.106;2024-02-21T00:10:02;6.00;99.90
4487;DHT22;2256;48.740;9.106;2024-02-21T00:12:29;6.00;99.90
4487;DHT22;2256;48.740;9.106;2024-02-21T00:14:56;6.00;99.90
4487;DHT22;2256;48.740;9.106;2024-02-21T00:17:22;6.00;99.90
4487;DHT22;2256;48.740;9.106;2024-02-21T00:19:51;6.00;99.90
4487;DHT22;2256;48.740;9.106;2024-02-21T00:22:18;6.10;99.90
4487;DHT22;2256;48.740;9.106;2024-02-21T00:24:46;6.20;99.90
4487;DHT22;2256;48.740;9.106;2024-02-21T00:27:13;6.10;99.90
4487;DHT22;2256;48.740;9.106;2024-02-21T00:29:40;6.10;99.90
4487;DHT22;2256;48.740;9.106;2024-02-21T00:32:07;6.20;99.90
4487;DHT22;2256;48.740;9.106;2024-02-21T00:34:34;6.20;99.90
4487;DHT22;2256;48.740;9.106;2024-02-21T00:37:01;6.20;99.90
4487;DHT22;2256;48.740;9.106;2024-02-21T00:39:28;6.30;99.90
4487;DHT22;2256;48.740;9.106;2024-02-21T00:41:56;6.30;99.90
4487;DHT22;2256;48.740;9.106;2024-02-21T00:44:24;6.20;99.90
4487;DHT22;2256;48.740;9.106;2024-02-21T00:46:50;6.30;99.90
4487;DHT22;2256;48.740;9.106;2024-02-21T00:49:18;6.30;99.90
4487;DHT22;2256;48.740;9.106;2024-02-21T00:51:44;6.30;99.90
4487;DHT22;2256;48.740;9.106;2024-02-21T00:54:11;6.30;99.90
4487;DHT22;2256;48.740;9.106;2024-02-21T00:56:38;6.30;99.90
4487;DHT22;2256;48.740;9.106;2024-02-21T00:59:06;6.40;99.90
4487;DHT22;2256;48.740;9.106;2024-02-21T01:01:33;6.30;99.90
4487;DHT22;2256;48.740;9.106;2024-02-21T01:04:00;6.30;99.90
4487;DHT22;2256;48.740;9.106;2024-02-21T01:06:27;6.30;99.90
4487;DHT22;2256;48.740;9.106;2024-02-21T01:08:54;6.30;99.90
4487;DHT22;2256;48.740;9.106;2024-02-21T01:11:21;6.40;99.90
4487;DHT22;2256;48.740;9.106;2024-02-21T01:13:47;6.40;99.90
4487;DHT22;2256;48.740;9.106;2024-02-21T01:16:16;6.40;99.90
4487;DHT22;2256;48.740;9.106;2024-02-21T01:18:43;6.40;99.90
4487;DHT22;2256;48.740;9.106;2024-02-21T01:21:09;6.40;99.90
4487;DHT22;2256;48.740;9.106;2024-02-21T01:23:37;6.50;99.90
4487;DHT22;2256;48.740;9.106;2024-02-21T01:26:04;6.40;99.90
4487;DHT22;2256;48.740;9.106;2024-02-21T01:28:33;6.30;99.90
4487;DHT22;2256;48.740;9.106;2024-02-21T01:31:00;6.30;99.90
4487;DHT22;2256;48.740;9.106;2024-02-21T01:33:29;6.20;99.90
4487;DHT22;2256;48.740;9.106;2024-02-21T01:36:00;6.20;99.90
4487;DHT22;2256;48.740;9.106;2024-02-21T01:38:27;6.20;99.90
4487;DHT22;2256;48.740;9.106;2024-02-21T01:40:54;6.20;99.90
4487;DHT22;2256;48.740;9.106;2024-02-21T01:43:21;6.10;99.90
4487;DHT22;2256;48.740;9.106;2024-02-21T01:45:50;6.00;99.90
4487;DHT22;2256;48.740;9.106;2024-02-21T01:48:18;5.90;99.90
4487;DHT22;2256;48.740;9.106;2024-02-21T01:50:47;6.00;99.90
4487;DHT22;2256;48.740;9.106;2024-02-21T01:53:14;5.90;99.90
4487;DHT22;2256;48.740;9.106;2024-02-21T01:55:44;5.90;99.90
4487;DHT22;2256;48.740;9.106;2024-02-21T01:58:11;6.00;99.90
4487;DHT22;2256;48.740;9.106;2024-02-21T02:00:40;5.90;99.90
4487;DHT22;2256;48.740;9.106;2024-02-21T02:03:09;5.90;99.90
4487;DHT22;2256;48.740;9.106;2024-02-21T02:05:43;5.90;99.90
4487;DHT22;2256;48.740;9.106;2024-02-21T02:08:11;5.90;99.90
4487;DHT22;2256;48.740;9.106;2024-02-21T02:10:39;5.90;99.90
4487;DHT22;2256;48.740;9.106;2024-02-21T02:13:06;6.00;99.90
4487;DHT22;2256;48.740;9.106;2024-02-21T02:15:39;6.00;99.90
4487;DHT22;2256;48.740;9.106;2024-02-21T02:18:06;6.10;99.90
4487;DHT22;2256;48.740;9.106;2024-02-21T02:20:33;6.10;99.90
4487;DHT22;2256;48.740;9.106;2024-02-21T02:23:03;6.10;99.90
4487;DHT22;2256;48.740;9.106;2024-02-21T02:25:33;6.10;99.90
4487;DHT22;2256;48.740;9.106;2024-02-21T02:28:00;6.10;99.90
4487;DHT22;2256;48.740;9.106;2024-02-21T02:30:27;6.10;99.90
4487;DHT22;2256;48.740;9.106;2024-02-21T02:32:54;6.00;99.90
4487;DHT22;2256;48.740;9.106;2024-02-21T02:35:21;6.00;99.90
4487;DHT22;2256;48.740;9.106;2024-02-21T02:37:48;6.10;99.90
4487;DHT22;2256;48.740;9.106;2024-02-21T02:40:15;6.10;99.90
4487;DHT22;2256;48.740;9.106;2024-02-21T02:42:44;6.10;99.90
4487;DHT22;2256;48.740;9.106;2024-02-21T02:45:11;6.10;99.90
4487;DHT22;2256;48.740;9.106;2024-02-21T02:47:39;6.10;99.90
4487;DHT22;2256;48.740;9.106;2024-02-21T02:50:07;6.10;99.90
4487;DHT22;2256;48.740;9.106;2024-02-21T02:52:34;6.20;99.90
4487;DHT22;2256;48.740;9.106;2024-02-21T02:55:00;6.30;99.90
4487;DHT22;2256;48.740;9.106;2024-02-21T02:57:27;6.20;99.90
4487;DHT22;2256;48.740;9.106;2024-02-21T02:59:55;6.20;99.90
4487;DHT22;2256;48.740;9.106;2024-02-21T03:02:22;6.30;99.90
4487;DHT22;2256;48.740;9.106;2024-02-21T03:04:49;6.40;99.90
4487;DHT22;2256;48.740;9.106;2024-02-21T03:07:16;6.40;99.90
4487;DHT22;2256;48.740;9.106;2024-02-21T03:09:43;6.40;99.90
4487;DHT22;2256;48.740;9.106;2024-02-21T03:12:09;6.40;99.90
4487;DHT22;2256;48.740;9.106;2024-02-21T03:14:36;6.40;99.90
4487;DHT22;2256;48.740;9.106;2024-02-21T03:17:04;6.40;99.90
4487;DHT22;2256;48.740;9.106;2024-02-21T03:19:31;6.40;99.90
4487;DHT22;2256;48.740;9.106;2024-02-21T03:21:58;6.20;99.90
4487;DHT22;2256;48.740;9.106;2024-02-21T03:24:25;6.20;99.90
4487;DHT22;2256;48.740;9.106;2024-02-21T03:26:51;6.20;99.90
4487;DHT22;2256;48.740;9.106;2024-02-21T03:29:18;6.10;99.90
4487;DHT22;2256;48.740;9.106;2024-02-21T03:31:45;6.10;99.90
4487;DHT22;2256;48.740;9.106;2024-02-21T03:34:13;6.00;99.90
4487;DHT22;2256;48.740;9.106;2024-02-21T03:36:40;5.80;99.90
4487;DHT22;2256;48.740;9.106;2024-02-21T03:39:06;5.70;99.90
4487;DHT22;2256;48.740;9.106;2024-02-21T03:41:34;5.70;99.90
4487;DHT22;2256;48.740;9.106;2024-02-21T03:44:01;5.80;99.90
4487;DHT22;2256;48.740;9.106;2024-02-21T03:46:28;5.80;99.90
4487;DHT22;2256;48.740;9.106;2024-02-21T03:48:55;5.80;99.90
4487;DHT22;2256;48.740;9.106;2024-02-21T03:51:23;5.80;99.90
4487;DHT22;2256;48.740;9.106;2024-02-21T03:53:49;5.80;99.90
4487;DHT22;2256;48.740;9.106;2024-02-21T03:56:16;5.80;99.90
4487;DHT22;2256;48.740;9.106;2024-02-21T03:58:43;5.80;99.90
4487;DHT22;2256;48.740;9.106;2024-02-21T04:01:10;5.70;99.90
4487;DHT22;2256;48.740;9.106;2024-02-21T04:03:37;5.80;99.90
4487;DHT22;2256;48.740;9.106;2024-02-21T04:06:04;5.70;99.90
4487;DHT22;2256;48.740;9.106;2024-02-21T04:08:32;5.80;99.90
4487;DHT22;2256;48.740;9.106;2024-02-21T04:10:59;5.80;99.90
4487;DHT22;2256;48.740;9.106;2024-02-21T04:13:26;5.80;99.90
4487;DHT22;2256;48.740;9.106;2024-02-21T04:15:53;5.70;99.90
4487;DHT22;2256;48.740;9.106;2024-02-21T04:18:19;5.80;99.90
4487;DHT22;2256;48.740;9.106;2024-02-21T04:20:47;5.70;99.90
4487;DHT22;2256;48.740;9.106;2024-02-21T04:23:14;5.60;99.90
4487;DHT22;2256;48.740;9.106;2024-02-21T04:25:42;5.60;99.90
4487;DHT22;2256;48.740;9.106;2024-02-21T04:28:09;5.50;99.90
4487;DHT22;2256;48.740;9.106;2024-02-21T04:30:35;5.50;99.90
4487;DHT22;2256;48.740;9.106;2024-02-21T04:33:02;5.40;99.90
4487;DHT22;2256;48.740;9.106;2024-02-21T04:35:29;5.40;99.90
4487;DHT22;2256;48.740;9.106;2024-02-21T04:37:56;5.30;99.90
4487;DHT22;2256;48.740;9.106;2024-02-21T04:40:23;5.40;99.90
4487;DHT22;2256;48.740;9.106;2024-02-21T04:42:51;5.30;99.90
4487;DHT22;2256;48.740;9.106;2024-02-21T04:45:17;5.30;99.90
4487;DHT22;2256;48.740;9.106;2024-02-21T04:47:44;5.30;99.90
4487;DHT22;2256;48.740;9.106;2024-02-21T04:50:11;5.20;99.90
4487;DHT22;2256;48.740;9.106;2024-02-21T04:52:38;5.20;99.90
4487;DHT22;2256;48.740;9.106;2024-02-21T04:55:05;5.20;99.90
4487;DHT22;2256;48.740;9.106;2024-02-21T04:57:32;5.20;99.90
4487;DHT22;2256;48.740;9.106;2024-02-21T05:00:01;5.20;99.90
4487;DHT22;2256;48.740;9.106;2024-02-21T05:02:29;5.10;99.90
4487;DHT22;2256;48.740;9.106;2024-02-21T05:04:56;5.00;99.90
4487;DHT22;2256;48.740;9.106;2024-02-21T05:07:22;5.00;99.90
4487;DHT22;2256;48.740;9.106;2024-02-21T05:09:49;5.00;99.90
4487;DHT22;2256;48.740;9.106;2024-02-21T05:12:16;4.90;99.90
4487;DHT22;2256;48.740;9.106;2024-02-21T05:14:43;4.90;99.90
4487;DHT22;2256;48.740;9.106;2024-02-21T05:17:11;4.80;99.90
4487;DHT22;2256;48.740;9.106;2024-02-21T05:19:38;4.70;99.90
4487;DHT22;2256;48.740;9.106;2024-02-21T05:22:05;4.70;99.90
4487;DHT22;2256;48.740;9.106;2024-02-21T05:24:32;4.60;99.90
4487;DHT22;2256;48.740;9.106;2024-02-21T05:26:58;4.60;99.90
4487;DHT22;2256;48.740;9.106;2024-02-21T05:29:25;4.70;99.90
4487;DHT22;2256;48.740;9.106;2024-02-21T05:31:56;4.70;99.90
4487;DHT22;2256;48.740;9.106;2024-02-21T05:34:25;4.70;99.90
4487;DHT22;2256;48.740;9.106;2024-02-21T05:36:52;4.70;99.90
4487;DHT22;2256;48.740;9.106;2024-02-21T05:39:18;4.70;99.90
4487;DHT22;2256;48.740;9.106;2024-02-21T05:41:48;4.80;99.90
4487;DHT22;2256;48.740;9.106;2024-02-21T05:44:15;4.80;99.90
4487;DHT22;2256;48.740;9.106;2024-02-21T05:46:42;4.80;99.90
4487;DHT22;2256;48.740;9.106;2024-02-21T05:49:09;5.00;99.90
4487;DHT22;2256;48.740;9.106;2024-02-21T05:51:37;5.10;99.90
4487;DHT22;2256;48.740;9.106;2024-02-21T05:54:04;5.30;99.90
4487;DHT22;2256;48.740;9.106;2024-02-21T05:56:32;5.30;99.90
4487;DHT22;2256;48.740;9.106;2024-02-21T05:58:58;5.10;99.90
4487;DHT22;2256;48.740;9.106;2024-02-21T06:01:25;5.10;99.90
4487;DHT22;2256;48.740;9.106;2024-02-21T06:03:53;5.00;99.90
4487;DHT22;2256;48.740;9.106;2024-02-21T06:06:20;5.10;99.90
4487;DHT22;2256;48.740;9.106;2024-02-21T06:08:48;5.40;99.90
4487;DHT22;2256;48.740;9.106;2024-02-21T06:11:15;5.50;99.90
4487;DHT22;2256;48.740;9.106;2024-02-21T06:13:42;5.50;99.90
4487;DHT22;2256;48.740;9.106;2024-02-21T06:16:09;5.50;99.90
4487;DHT22;2256;48.740;9.106;2024-02-21T06:18:36;5.40;99.90
4487;DHT22;2256;48.740;9.106;2024-02-21T06:21:03;5.30;99.90
4487;DHT22;2256;48.740;9.106;2024-02-21T06:23:30;5.10;99.90
4487;DHT22;2256;48.740;9.106;2024-02-21T06:25:58;5.00;99.90
4487;DHT22;2256;48.740;9.106;2024-02-21T06:28:25;4.90;99.90
4487;DHT22;2256;48.740;9.106;2024-02-21T06:30:52;4.90;99.90
4487;DHT22;2256;48.740;9.106;2024-02-21T06:33:19;4.80;99.90
4487;DHT22;2256;48.740;9.106;2024-02-21T06:35:50;4.80;99.90
4487;DHT22;2256;48.740;9.106;2024-02-21T06:38:18;4.80;99.90
4487;DHT22;2256;48.740;9.106;2024-02-21T06:40:45;4.90;99.90
4487;DHT22;2256;48.740;9.106;2024-02-21T06:43:18;5.00;99.90
4487;DHT22;2256;48.740;9.106;2024-02-21T06:45:45;5.00;99.90
4487;DHT22;2256;48.740;9.106;2024-02-21T06:48:16;5.10;99.90
4487;DHT22;2256;48.740;9.106;2024-02-21T06:50:44;5.10;99.90
4487;DHT22;2256;48.740;9.106;2024-02-21T06:53:10;5.20;99.90
4487;DHT22;2256;48.740;9.106;2024-02-21T06:55:37;5.20;99.90
4487;DHT22;2256;48.740;9.106;2024-02-21T06:58:04;5.20;99.90
4487;DHT22;2256;48.740;9.106;2024-02-21T07:00:35;5.40;99.90
4487;DHT22;2256;48.740;9.106;2024-02-21T07:03:02;5.50;99.90
4487;DHT22;2256;48.740;9.106;2024-02-21T07:05:29;5.50;99.90
4487;DHT22;2256;48.740;9.106;2024-02-21T07:07:56;5.60;99.90
4487;DHT22;2256;48.740;9.106;2024-02-21T07:10:23;5.70;99.90
4487;DHT22;2256;48.740;9.106;2024-02-21T07:12:50;5.90;99.90
4487;DHT22;2256;48.740;9.106;2024-02-21T07:15:18;6.00;99.90
4487;DHT22;2256;48.740;9.106;2024-02-21T07:17:47;6.00;99.90
4487;DHT22;2256;48.740;9.106;2024-02-21T07:22:42;6.30;99.90
4487;DHT22;2256;48.740;9.106;2024-02-21T07:25:09;6.50;99.90
4487;DHT22;2256;48.740;9.106;2024-02-21T07:27:36;6.60;99.90
4487;DHT22;2256;48.740;9.106;2024-02-21T07:30:04;6.70;99.90
4487;DHT22;2256;48.740;9.106;2024-02-21T07:32:30;6.90;99.90
4487;DHT22;2256;48.740;9.106;2024-02-21T07:34:58;7.20;99.90
4487;DHT22;2256;48.740;9.106;2024-02-21T07:37:25;7.50;99.90
4487;DHT22;2256;48.740;9.106;2024-02-21T07:39:52;7.80;99.90
4487;DHT22;2256;48.740;9.106;2024-02-21T07:42:19;8.00;99.90
4487;DHT22;2256;48.740;9.106;2024-02-21T07:44:45;8.10;99.90
4487;DHT22;2256;48.740;9.106;2024-02-21T07:47:12;8.20;99.90
4487;DHT22;2256;48.740;9.106;2024-02-21T07:49:43;8.50;99.90
4487;DHT22;2256;48.740;9.106;2024-02-21T07:52:11;8.50;99.90
4487;DHT22;2256;48.740;9.106;2024-02-21T07:54:38;8.50;99.90
4487;DHT22;2256;48.740;9.106;2024-02-21T07:57:05;8.60;99.90
4487;DHT22;2256;48.740;9.106;2024-02-21T07:59:32;8.50;99.90
4487;DHT22;2256;48.740;9.106;2024-02-21T08:01:59;8.50;99.90
4487;DHT22;2256;48.740;9.106;2024-02-21T08:04:25;8.40;99.90
4487;DHT22;2256;48.740;9.106;2024-02-21T08:06:53;8.40;99.90
4487;DHT22;2256;48.740;9.106;2024-02-21T08:09:22;8.40;99.90
4487;DHT22;2256;48.740;9.106;2024-02-21T08:11:49;8.50;99.90
4487;DHT22;2256;48.740;9.106;2024-02-21T08:14:16;8.70;99.90
4487;DHT22;2256;48.740;9.106;2024-02-21T08:16:43;8.70;99.90
4487;DHT22;2256;48.740;9.106;2024-02-21T08:19:11;8.90;99.90
4487;DHT22;2256;48.740;9.106;2024-02-21T08:21:37;9.00;99.90
4487;DHT22;2256;48.740;9.106;2024-02-21T08:24:04;9.10;99.90
4487;DHT22;2256;48.740;9.106;2024-02-21T08:26:32;9.30;99.90
4487;DHT22;2256;48.740;9.106;2024-02-21T08:28:59;9.40;99.90
4487;DHT22;2256;48.740;9.106;2024-02-21T08:31:26;9.50;99.90
4487;DHT22;2256;48.740;9.106;2024-02-21T08:33:56;9.70;99.90
4487;DHT22;2256;48.740;9.106;2024-02-21T08:36:28;9.90;99.90
4487;DHT22;2256;48.740;9.106;2024-02-21T08:38:55;9.90;99.90
4487;DHT22;2256;48.740;9.106;2024-02-21T08:41:22;10.20;99.90
4487;DHT22;2256;48.740;9.106;2024-02-21T08:43:50;10.40;99.90
4487;DHT22;2256;48.740;9.106;2024-02-21T08:46:17;10.30;99.90
4487;DHT22;2256;48.740;9.106;2024-02-21T08:48:44;10.30;99.90
4487;DHT22;2256;48.740;9.106;2024-02-21T08:51:12;10.30;99.90
4487;DHT22;2256;48.740;9.106;2024-02-21T08:53:39;10.20;99.90
4487;DHT22;2256;48.740;9.106;2024-02-21T08:56:06;10.20;99.90
4487;DHT22;2256;48.740;9.106;2024-02-21T08:58:34;10.30;99.90
4487;DHT22;2256;48.740;9.106;2024-02-21T09:01:03;10.40;99.90
4487;DHT22;2256;48.740;9.106;2024-02-21T09:03:31;10.40;99.90
4487;DHT22;2256;48.740;9.106;2024-02-21T09:05:58;10.50;99.90
4487;DHT22;2256;48.740;9.106;2024-02-21T09:08:25;10.70;99.90
4487;DHT22;2256;48.740;9.106;2024-02-21T09:10:52;10.70;99.90
4487;DHT22;2256;48.740;9.106;2024-02-21T09:13:19;10.60;99.90
4487;DHT22;2256;48.740;9.106;2024-02-21T09:15:46;10.50;99.90
4487;DHT22;2256;48.740;9.106;2024-02-21T09:18:14;10.60;99.90
4487;DHT22;2256;48.740;9.106;2024-02-21T09:20:41;10.80;99.90
4487;DHT22;2256;48.740;9.106;2024-02-21T09:23:08;10.90;99.90
4487;DHT22;2256;48.740;9.106;2024-02-21T09:25:35;11.20;99.90
4487;DHT22;2256;48.740;9.106;2024-02-21T09:28:02;11.30;99.90
4487;DHT22;2256;48.740;9.106;2024-02-21T09:30:29;11.60;99.90
4487;DHT22;2256;48.740;9.106;2024-02-21T09:32:56;11.90;99.90
4487;DHT22;2256;48.740;9.106;2024-02-21T09:35:25;12.30;99.90
4487;DHT22;2256;48.740;9.106;2024-02-21T09:37:53;12.50;99.90
4487;DHT22;2256;48.740;9.106;2024-02-21T09:40:20;13.00;99.90
4487;DHT22;2256;48.740;9.106;2024-02-21T09:42:47;13.20;99.90
4487;DHT22;2256;48.740;9.106;2024-02-21T09:45:20;13.50;99.20
4487;DHT22;2256;48.740;9.106;2024-02-21T09:48:13;13.20;99.90
4487;DHT22;2256;48.740;9.106;2024-02-21T09:50:45;13.50;99.90
4487;DHT22;2256;48.740;9.106;2024-02-21T09:53:14;13.60;99.50
4487;DHT22;2256;48.740;9.106;2024-02-21T09:55:43;13.60;99.40
4487;DHT22;2256;48.740;9.106;2024-02-21T09:58:10;13.20;99.10
4487;DHT22;2256;48.740;9.106;2024-02-21T10:00:38;13.00;99.20
4487;DHT22;2256;48.740;9.106;2024-02-21T10:03:04;12.80;98.90
4487;DHT22;2256;48.740;9.106;2024-02-21T10:05:35;12.80;99.30
4487;DHT22;2256;48.740;9.106;2024-02-21T10:08:04;13.20;99.70
4487;DHT22;2256;48.740;9.106;2024-02-21T10:10:41;13.20;99.60
4487;DHT22;2256;48.740;9.106;2024-02-21T10:13:09;13.40;99.10
4487;DHT22;2256;48.740;9.106;2024-02-21T10:15:36;13.50;98.10
4487;DHT22;2256;48.740;9.106;2024-02-21T10:18:04;13.40;98.20
4487;DHT22;2256;48.740;9.106;2024-02-21T10:20:32;13.30;98.40
4487;DHT22;2256;48.740;9.106;2024-02-21T10:23:04;13.20;98.30
4487;DHT22;2256;48.740;9.106;2024-02-21T10:25:34;13.10;98.50
4487;DHT22;2256;48.740;9.106;2024-02-21T10:28:02;12.90;98.10
4487;DHT22;2256;48.740;9.106;2024-02-21T10:30:29;12.80;98.60
4487;DHT22;2256;48.740;9.106;2024-02-21T10:32:56;12.80;98.70
4487;DHT22;2256;48.740;9.106;2024-02-21T10:35:27;12.80;98.20
4487;DHT22;2256;48.740;9.106;2024-02-21T10:37:55;12.80;98.20
4487;DHT22;2256;48.740;9.106;2024-02-21T10:40:25;12.70;98.30
4487;DHT22;2256;48.740;9.106;2024-02-21T10:42:57;12.80;98.50
4487;DHT22;2256;48.740;9.106;2024-02-21T10:45:30;13.00;98.30
4487;DHT22;2256;48.740;9.106;2024-02-21T10:48:08;13.10;98.30
4487;DHT22;2256;48.740;9.106;2024-02-21T10:50:45;13.20;98.20
4487;DHT22;2256;48.740;9.106;2024-02-21T10:53:22;13.20;98.00
4487;DHT22;2256;48.740;9.106;2024-02-21T10:56:11;13.20;97.90
4487;DHT22;2256;48.740;9.106;2024-02-21T10:58:39;13.20;97.80
4487;DHT22;2256;48.740;9.106;2024-02-21T11:01:08;13.00;98.30
4487;DHT22;2256;48.740;9.106;2024-02-21T11:03:35;13.00;98.30
4487;DHT22;2256;48.740;9.106;2024-02-21T11:06:04;13.10;98.30
4487;DHT22;2256;48.740;9.106;2024-02-21T11:08:31;13.30;98.00
4487;DHT22;2256;48.740;9.106;2024-02-21T11:10:59;13.30;98.20
4487;DHT22;2256;48.740;9.106;2024-02-21T11:13:40;13.50;97.90
4487;DHT22;2256;48.740;9.106;2024-02-21T11:16:10;13.50;97.70
4487;DHT22;2256;48.740;9.106;2024-02-21T11:18:37;13.60;97.70
4487;DHT22;2256;48.740;9.106;2024-02-21T11:21:04;13.50;96.70
4487;DHT22;2256;48.740;9.106;2024-02-21T11:23:31;13.50;97.10
4487;DHT22;2256;48.740;9.106;2024-02-21T11:26:06;13.60;97.00
4487;DHT22;2256;48.740;9.106;2024-02-21T11:28:32;13.60;97.20
4487;DHT22;2256;48.740;9.106;2024-02-21T11:31:11;13.60;95.20
4487;DHT22;2256;48.740;9.106;2024-02-21T11:33:40;13.60;94.70
4487;DHT22;2256;48.740;9.106;2024-02-21T11:36:07;13.50;95.00
4487;DHT22;2256;48.740;9.106;2024-02-21T11:38:34;13.40;94.40
4487;DHT22;2256;48.740;9.106;2024-02-21T11:41:01;13.30;94.10
4487;DHT22;2256;48.740;9.106;2024-02-21T11:43:28;13.10;93.70
4487;DHT22;2256;48.740;9.106;2024-02-21T11:46:01;13.20;94.40
4487;DHT22;2256;48.740;9.106;2024-02-21T11:48:31;13.20;95.10
4487;DHT22;2256;48.740;9.106;2024-02-21T11:50:58;13.30;95.30
4487;DHT22;2256;48.740;9.106;2024-02-21T11:53:26;13.50;95.00
4487;DHT22;2256;48.740;9.106;2024-02-21T11:55:56;13.60;94.90
4487;DHT22;2256;48.740;9.106;2024-02-21T11:58:24;13.60;94.70
4487;DHT22;2256;48.740;9.106;2024-02-21T12:00:50;13.70;95.20
4487;DHT22;2256;48.740;9.106;2024-02-21T12:03:18;13.80;95.10
4487;DHT22;2256;48.740;9.106;2024-02-21T12:05:47;13.90;95.30
4487;DHT22;2256;48.740;9.106;2024-02-21T12:08:15;14.00;95.30
4487;DHT22;2256;48.740;9.106;2024-02-21T12:10:42;14.00;94.30
4487;DHT22;2256;48.740;9.106;2024-02-21T12:13:15;14.00;94.30
4487;DHT22;2256;48.740;9.106;2024-02-21T12:15:47;13.90;93.80
4487;DHT22;2256;48.740;9.106;2024-02-21T12:18:15;14.00;94.00
4487;DHT22;2256;48.740;9.106;2024-02-21T12:20:42;14.10;93.90
4487;DHT22;2256;48.740;9.106;2024-02-21T12:23:12;14.20;93.00
4487;DHT22;2256;48.740;9.106;2024-02-21T12:25:39;14.20;93.10
4487;DHT22;2256;48.740;9.106;2024-02-21T12:28:06;14.10;93.00
4487;DHT22;2256;48.740;9.106;2024-02-21T12:30:33;14.10;93.50
4487;DHT22;2256;48.740;9.106;2024-02-21T12:33:03;14.20;93.50
4487;DHT22;2256;48.740;9.106;2024-02-21T12:35:30;14.30;93.10
4487;DHT22;2256;48.740;9.106;2024-02-21T12:37:58;14.20;92.60
4487;DHT22;2256;48.740;9.106;2024-02-21T12:40:29;14.20;92.70
4487;DHT22;2256;48.740;9.106;2024-02-21T12:42:58;14.30;92.70
4487;DHT22;2256;48.740;9.106;2024-02-21T12:45:25;14.30;92.10
4487;DHT22;2256;48.740;9.106;2024-02-21T12:47:52;14.30;92.40
4487;DHT22;2256;48.740;9.106;2024-02-21T12:50:19;14.30;92.00
4487;DHT22;2256;48.740;9.106;2024-02-21T12:52:48;14.20;92.20
4487;DHT22;2256;48.740;9.106;2024-02-21T12:55:15;14.10;92.60
4487;DHT22;2256;48.740;9.106;2024-02-21T12:57:43;14.10;92.70
4487;DHT22;2256;48.740;9.106;2024-02-21T13:00:11;14.10;92.60
4487;DHT22;2256;48.740;9.106;2024-02-21T13:02:39;14.20;92.00
4487;DHT22;2256;48.740;9.106;2024-02-21T13:05:07;14.20;91.90
4487;DHT22;2256;48.740;9.106;2024-02-21T13:07:34;14.30;91.10
4487;DHT22;2256;48.740;9.106;2024-02-21T13:10:02;14.20;91.50
4487;DHT22;2256;48.740;9.106;2024-02-21T13:12:29;14.30;91.70
4487;DHT22;2256;48.740;9.106;2024-02-21T13:14:57;14.20;90.60
4487;DHT22;2256;48.740;9.106;2024-02-21T13:17:24;14.10;90.70
4487;DHT22;2256;48.740;9.106;2024-02-21T13:19:55;14.10;90.40
4487;DHT22;2256;48.740;9.106;2024-02-21T13:22:22;14.00;90.60
4487;DHT22;2256;48.740;9.106;2024-02-21T13:24:51;14.00;90.90
4487;DHT22;2256;48.740;9.106;2024-02-21T13:27:21;14.10;90.20
4487;DHT22;2256;48.740;9.106;2024-02-21T13:29:48;14.10;90.50
4487;DHT22;2256;48.740;9.106;2024-02-21T13:32:16;14.20;90.40
4487;DHT22;2256;48.740;9.106;2024-02-21T13:37:11;14.30;90.70
4487;DHT22;2256;48.740;9.106;2024-02-21T13:39:39;14.20;90.40
4487;DHT22;2256;48.740;9.106;2024-02-21T13:42:06;14.20;90.70
4487;DHT22;2256;48.740;9.106;2024-02-21T13:44:33;14.20;90.70
4487;DHT22;2256;48.740;9.106;2024-02-21T13:47:00;14.20;90.30
4487;DHT22;2256;48.740;9.106;2024-02-21T13:49:28;14.10;90.40
4487;DHT22;2256;48.740;9.106;2024-02-21T13:51:56;14.00;90.70
4487;DHT22;2256;48.740;9.106;2024-02-21T13:54:23;14.10;90.90
4487;DHT22;2256;48.740;9.106;2024-02-21T13:56:50;14.10;90.50
4487;DHT22;2256;48.740;9.106;2024-02-21T13:59:17;14.10;90.90
4487;DHT22;2256;48.740;9.106;2024-02-21T14:01:44;14.00;90.70
4487;DHT22;2256;48.740;9.106;2024-02-21T14:04:10;13.80;90.70
4487;DHT22;2256;48.740;9.106;2024-02-21T14:06:39;14.00;90.10
4487;DHT22;2256;48.740;9.106;2024-02-21T14:09:08;13.90;90.40
4487;DHT22;2256;48.740;9.106;2024-02-21T14:11:35;13.90;90.50
4487;DHT22;2256;48.740;9.106;2024-02-21T14:14:03;13.90;90.40
4487;DHT22;2256;48.740;9.106;2024-02-21T14:16:30;13.90;90.70
4487;DHT22;2256;48.740;9.106;2024-02-21T14:18:57;13.90;90.30
4487;DHT22;2256;48.740;9.106;2024-02-21T14:21:24;13.80;90.80
4487;DHT22;2256;48.740;9.106;2024-02-21T14:23:52;13.80;90.30
4487;DHT22;2256;48.740;9.106;2024-02-21T14:26:19;13.80;90.20
4487;DHT22;2256;48.740;9.106;2024-02-21T14:28:47;13.70;90.60
4487;DHT22;2256;48.740;9.106;2024-02-21T14:31:14;13.70;89.80
4487;DHT22;2256;48.740;9.106;2024-02-21T14:33:42;13.50;89.60
4487;DHT22;2256;48.740;9.106;2024-02-21T14:36:11;13.50;89.20
4487;DHT22;2256;48.740;9.106;2024-02-21T14:38:38;13.50;89.10
4487;DHT22;2256;48.740;9.106;2024-02-21T14:41:06;13.40;88.50
4487;DHT22;2256;48.740;9.106;2024-02-21T14:43:33;13.50;89.80
4487;DHT22;2256;48.740;9.106;2024-02-21T14:46:00;13.40;88.70
4487;DHT22;2256;48.740;9.106;2024-02-21T14:48:29;13.30;87.40
4487;DHT22;2256;48.740;9.106;2024-02-21T14:50:58;13.10;88.00
4487;DHT22;2256;48.740;9.106;2024-02-21T14:53:25;13.10;87.90
4487;DHT22;2256;48.740;9.106;2024-02-21T14:55:52;13.10;87.20
4487;DHT22;2256;48.740;9.106;2024-02-21T14:58:20;13.00;88.70
4487;DHT22;2256;48.740;9.106;2024-02-21T15:00:47;13.10;88.00
4487;DHT22;2256;48.740;9.106;2024-02-21T15:03:16;13.10;87.70
4487;DHT22;2256;48.740;9.106;2024-02-21T15:05:45;13.10;87.00
4487;DHT22;2256;48.740;9.106;2024-02-21T15:08:12;13.00;87.50
4487;DHT22;2256;48.740;9.106;2024-02-21T15:10:42;12.90;88.40
4487;DHT22;2256;48.740;9.106;2024-02-21T15:13:10;12.80;89.10
4487;DHT22;2256;48.740;9.106;2024-02-21T15:15:38;12.70;89.40
4487;DHT22;2256;48.740;9.106;2024-02-21T15:18:05;12.80;89.50
4487;DHT22;2256;48.740;9.106;2024-02-21T15:20:31;12.70;90.10
4487;DHT22;2256;48.740;9.106;2024-02-21T15:22:58;12.60;90.60
4487;DHT22;2256;48.740;9.106;2024-02-21T15:25:26;12.70;90.40
4487;DHT22;2256;48.740;9.106;2024-02-21T15:27:53;12.80;90.70
4487;DHT22;2256;48.740;9.106;2024-02-21T15:30:20;12.70;89.80
4487;DHT22;2256;48.740;9.106;2024-02-21T15:32:48;12.60;90.10
4487;DHT22;2256;48.740;9.106;2024-02-21T15:35:15;12.50;90.30
4487;DHT22;2256;48.740;9.106;2024-02-21T15:37:42;12.40;90.50
4487;DHT22;2256;48.740;9.106;2024-02-21T15:40:09;12.40;91.50
4487;DHT22;2256;48.740;9.106;2024-02-21T15:42:36;12.30;91.70
4487;DHT22;2256;48.740;9.106;2024-02-21T15:45:04;12.30;92.30
4487;DHT22;2256;48.740;9.106;2024-02-21T15:47:32;12.30;92.10
4487;DHT22;2256;48.740;9.106;2024-02-21T15:50:00;12.20;92.70
4487;DHT22;2256;48.740;9.106;2024-02-21T15:52:28;12.20;92.70
4487;DHT22;2256;48.740;9.106;2024-02-21T15:54:55;12.10;93.30
4487;DHT22;2256;48.740;9.106;2024-02-21T15:57:22;12.10;93.60
4487;DHT22;2256;48.740;9.106;2024-02-21T15:59:49;12.10;93.90
4487;DHT22;2256;48.740;9.106;2024-02-21T16:02:19;12.10;94.90
4487;DHT22;2256;48.740;9.106;2024-02-21T16:04:46;12.00;94.80
4487;DHT22;2256;48.740;9.106;2024-02-21T16:07:14;11.90;95.00
4487;DHT22;2256;48.740;9.106;2024-02-21T16:09:41;11.80;95.40
4487;DHT22;2256;48.740;9.106;2024-02-21T16:12:09;11.90;95.80
4487;DHT22;2256;48.740;9.106;2024-02-21T16:14:36;11.80;96.10
4487;DHT22;2256;48.740;9.106;2024-02-21T16:17:03;11.80;96.20